sensor_id;sensor_type;location;lat;lon;timestamp;pressure;altitude;pressure_sealevel;temperature;humidity
59106;BME280;44891;50.204;8.132;2023-08-20T00:02:15;98694.31;;;20.68;100.00
59106;BME280;44891;50.204;8.132;2023-08-20T00:06:22;98688.25;;;20.62;100.00
59106;BME280;44891;50.204;8.132;2023-08-20T00:10:24;98693.66;;;20.57;100.00
59106;BME280;44891;50.204;8.132;2023-08-20T00:14:55;98696.78;;;20.45;100.00
59106;BME280;44891;50.204;8.132;2023-08-20T00:18:59;98693.25;;;20.50;100.00
59106;BME280;44891;50.204;8.132;2023-08-20T00:23:03;98687.31;;;20.53;100.00
59106;BME280;44891;50.204;8.132;2023-08-20T00:27:06;98688.31;;;20.57;100.00
59106;BME280;44891;50.204;8.132;2023-08-20T00:31:08;98686.16;;;20.59;100.00
59106;BME280;44891;50.204;8.132;2023-08-20T00:35:10;98679.16;;;20.44;100.00
59106;BME280;44891;50.204;8.132;2023-08-20T00:39:14;98682.00;;;20.34;100.00
59106;BME280;44891;50.204;8.132;2023-08-20T00:43:17;98679.25;;;20.20;100.00
59106;BME280;44891;50.204;8.132;2023-08-20T00:47:19;98680.44;;;19.95;100.00
59106;BME280;44891;50.204;8.132;2023-08-20T00:51:22;98684.78;;;19.86;100.00
59106;BME280;44891;50.204;8.132;2023-08-20T00:55:26;98681.50;;;19.75;100.00
59106;BME280;44891;50.204;8.132;2023-08-20T00:59:29;98679.00;;;19.60;100.00
59106;BME280;44891;50.204;8.132;2023-08-20T01:03:32;98675.00;;;19.63;100.00
59106;BME280;44891;50.204;8.132;2023-08-20T01:07:42;98676.66;;;19.53;100.00
59106;BME280;44891;50.204;8.132;2023-08-20T01:11:56;98667.38;;;19.75;100.00
59106;BME280;44891;50.204;8.132;2023-08-20T01:15:59;98670.91;;;19.89;100.00
59106;BME280;44891;50.204;8.132;2023-08-20T01:20:01;98662.84;;;19.94;100.00
59106;BME280;44891;50.204;8.132;2023-08-20T01:24:16;98664.50;;;19.90;100.00
59106;BME280;44891;50.204;8.132;2023-08-20T01:28:26;98678.28;;;19.73;100.00
59106;BME280;44891;50.204;8.132;2023-08-20T01:32:29;98677.69;;;19.81;100.00
59106;BME280;44891;50.204;8.132;2023-08-20T01:36:31;98681.31;;;19.67;100.00
59106;BME280;44891;50.204;8.132;2023-08-20T01:40:33;98689.53;;;19.70;100.00
59106;BME280;44891;50.204;8.132;2023-08-20T01:44:37;98695.16;;;19.69;100.00
59106;BME280;44891;50.204;8.132;2023-08-20T01:48:39;98699.72;;;19.68;100.00
59106;BME280;44891;50.204;8.132;2023-08-20T01:52:41;98711.56;;;19.52;100.00
59106;BME280;44891;50.204;8.132;2023-08-20T01:56:43;98715.22;;;19.37;100.00
59106;BME280;44891;50.204;8.132;2023-08-20T02:00:47;98720.59;;;19.32;100.00
59106;BME280;44891;50.204;8.132;2023-08-20T02:04:49;98728.22;;;19.15;100.00
59106;BME280;44891;50.204;8.132;2023-08-20T02:08:51;98726.13;;;19.12;100.00
59106;BME280;44891;50.204;8.132;2023-08-20T02:12:53;98717.75;;;19.23;100.00
59106;BME280;44891;50.204;8.132;2023-08-20T02:16:57;98720.75;;;19.17;100.00
59106;BME280;44891;50.204;8.132;2023-08-20T02:21:00;98685.31;;;18.92;100.00
59106;BME280;44891;50.204;8.132;2023-08-20T02:25:02;98711.19;;;19.16;100.00
59106;BME280;44891;50.204;8.132;2023-08-20T02:29:04;98710.56;;;18.95;100.00
59106;BME280;44891;50.204;8.132;2023-08-20T02:33:08;98715.47;;;19.12;100.00
59106;BME280;44891;50.204;8.132;2023-08-20T02:37:10;98712.34;;;19.05;100.00
59106;BME280;44891;50.204;8.132;2023-08-20T02:41:13;98708.94;;;18.99;100.00
59106;BME280;44891;50.204;8.132;2023-08-20T02:45:16;98710.50;;;18.71;100.00
59106;BME280;44891;50.204;8.132;2023-08-20T02:49:20;98708.41;;;18.68;100.00
59106;BME280;44891;50.204;8.132;2023-08-20T02:53:22;98700.09;;;18.74;100.00
59106;BME280;44891;50.204;8.132;2023-08-20T02:57:24;98692.81;;;18.85;100.00
59106;BME280;44891;50.204;8.132;2023-08-20T03:01:27;98689.41;;;18.80;100.00
59106;BME280;44891;50.204;8.132;2023-08-20T03:05:32;98690.72;;;18.82;100.00
59106;BME280;44891;50.204;8.132;2023-08-20T03:09:34;98686.25;;;18.78;100.00
59106;BME280;44891;50.204;8.132;2023-08-20T03:13:36;98688.78;;;18.54;100.00
59106;BME280;44891;50.204;8.132;2023-08-20T03:17:38;98684.03;;;18.51;100.00
59106;BME280;44891;50.204;8.132;2023-08-20T03:21:41;98689.38;;;18.51;100.00
59106;BME280;44891;50.204;8.132;2023-08-20T03:25:43;98683.41;;;18.64;100.00
59106;BME280;44891;50.204;8.132;2023-08-20T03:29:46;98684.47;;;18.63;100.00
59106;BME280;44891;50.204;8.132;2023-08-20T03:33:48;98691.41;;;18.59;100.00
59106;BME280;44891;50.204;8.132;2023-08-20T03:37:52;98694.97;;;18.49;100.00
59106;BME280;44891;50.204;8.132;2023-08-20T03:41:54;98705.38;;;18.40;100.00
59106;BME280;44891;50.204;8.132;2023-08-20T03:45:56;98714.13;;;18.46;100.00
59106;BME280;44891;50.204;8.132;2023-08-20T03:49:59;98706.41;;;18.50;100.00
59106;BME280;44891;50.204;8.132;2023-08-20T03:54:04;98719.78;;;18.34;100.00
59106;BME280;44891;50.204;8.132;2023-08-20T03:58:06;98719.72;;;18.44;100.00
59106;BME280;44891;50.204;8.132;2023-08-20T04:02:09;98717.38;;;18.38;100.00
59106;BME280;44891;50.204;8.132;2023-08-20T04:06:11;98719.63;;;18.55;100.00
59106;BME280;44891;50.204;8.132;2023-08-20T04:10:15;98728.69;;;18.54;100.00
59106;BME280;44891;50.204;8.132;2023-08-20T04:14:17;98729.75;;;18.58;100.00
59106;BME280;44891;50.204;8.132;2023-08-20T04:18:20;98736.97;;;18.52;100.00
59106;BME280;44891;50.204;8.132;2023-08-20T04:22:23;98732.88;;;18.26;100.00
59106;BME280;44891;50.204;8.132;2023-08-20T04:26:28;98735.69;;;18.44;100.00
59106;BME280;44891;50.204;8.132;2023-08-20T04:30:30;98732.41;;;18.58;100.00
59106;BME280;44891;50.204;8.132;2023-08-20T04:34:33;98730.75;;;18.62;100.00
59106;BME280;44891;50.204;8.132;2023-08-20T04:38:35;98742.97;;;18.68;100.00
59106;BME280;44891;50.204;8.132;2023-08-20T04:42:39;98756.88;;;18.55;100.00
59106;BME280;44891;50.204;8.132;2023-08-20T04:46:42;98744.34;;;18.60;100.00
59106;BME280;44891;50.204;8.132;2023-08-20T04:50:44;98743.53;;;18.65;100.00
59106;BME280;44891;50.204;8.132;2023-08-20T04:54:47;98752.34;;;18.55;100.00
59106;BME280;44891;50.204;8.132;2023-08-20T04:58:50;98751.50;;;18.20;100.00
59106;BME280;44891;50.204;8.132;2023-08-20T05:03:12;98760.41;;;18.45;100.00
59106;BME280;44891;50.204;8.132;2023-08-20T05:07:14;98760.06;;;18.57;100.00
59106;BME280;44891;50.204;8.132;2023-08-20T05:11:17;98766.94;;;18.63;100.00
59106;BME280;44891;50.204;8.132;2023-08-20T05:15:20;98762.94;;;18.65;100.00
59106;BME280;44891;50.204;8.132;2023-08-20T05:19:23;98759.47;;;18.70;100.00
59106;BME280;44891;50.204;8.132;2023-08-20T05:23:25;98764.25;;;18.73;100.00
59106;BME280;44891;50.204;8.132;2023-08-20T05:27:28;98770.03;;;18.80;100.00
59106;BME280;44891;50.204;8.132;2023-08-20T05:31:33;98768.44;;;18.79;100.00
59106;BME280;44891;50.204;8.132;2023-08-20T05:35:36;98782.72;;;18.93;100.00
59106;BME280;44891;50.204;8.132;2023-08-20T05:39:40;98781.59;;;18.99;100.00
59106;BME280;44891;50.204;8.132;2023-08-20T05:43:43;98784.09;;;19.20;100.00
59106;BME280;44891;50.204;8.132;2023-08-20T05:47:46;98794.03;;;19.38;100.00
59106;BME280;44891;50.204;8.132;2023-08-20T05:51:49;98788.72;;;19.38;100.00
59106;BME280;44891;50.204;8.132;2023-08-20T05:55:52;98794.16;;;19.28;100.00
59106;BME280;44891;50.204;8.132;2023-08-20T05:59:54;98799.25;;;19.19;100.00
59106;BME280;44891;50.204;8.132;2023-08-20T06:03:58;98798.94;;;19.26;100.00
59106;BME280;44891;50.204;8.132;2023-08-20T06:08:00;98804.81;;;19.28;100.00
59106;BME280;44891;50.204;8.132;2023-08-20T06:12:02;98808.75;;;19.31;100.00
59106;BME280;44891;50.204;8.132;2023-08-20T06:16:06;98815.38;;;19.33;100.00
59106;BME280;44891;50.204;8.132;2023-08-20T06:20:11;98813.38;;;19.49;100.00
59106;BME280;44891;50.204;8.132;2023-08-20T06:24:13;98820.88;;;19.76;100.00
59106;BME280;44891;50.204;8.132;2023-08-20T06:28:15;98821.94;;;19.75;100.00
59106;BME280;44891;50.204;8.132;2023-08-20T06:32:17;98822.50;;;19.96;100.00
59106;BME280;44891;50.204;8.132;2023-08-20T06:36:21;98825.38;;;20.23;100.00
59106;BME280;44891;50.204;8.132;2023-08-20T06:40:23;98818.72;;;20.45;100.00
59106;BME280;44891;50.204;8.132;2023-08-20T06:44:25;98824.44;;;20.57;100.00
59106;BME280;44891;50.204;8.132;2023-08-20T06:48:27;98827.53;;;20.64;100.00
59106;BME280;44891;50.204;8.132;2023-08-20T06:52:30;98823.28;;;20.82;100.00
59106;BME280;44891;50.204;8.132;2023-08-20T06:56:33;98827.88;;;20.95;100.00
59106;BME280;44891;50.204;8.132;2023-08-20T07:00:35;98827.75;;;21.19;100.00
59106;BME280;44891;50.204;8.132;2023-08-20T07:04:37;98825.00;;;21.24;100.00
59106;BME280;44891;50.204;8.132;2023-08-20T07:08:40;98831.41;;;21.42;100.00
59106;BME280;44891;50.204;8.132;2023-08-20T07:12:42;98839.38;;;21.61;100.00
59106;BME280;44891;50.204;8.132;2023-08-20T07:16:44;98820.06;;;21.78;100.00
59106;BME280;44891;50.204;8.132;2023-08-20T07:20:46;98813.66;;;21.92;100.00
59106;BME280;44891;50.204;8.132;2023-08-20T07:24:50;98825.72;;;22.04;100.00
59106;BME280;44891;50.204;8.132;2023-08-20T07:28:52;98822.25;;;22.17;100.00
59106;BME280;44891;50.204;8.132;2023-08-20T07:33:00;98827.41;;;22.27;100.00
59106;BME280;44891;50.204;8.132;2023-08-20T07:37:03;98833.22;;;22.43;100.00
59106;BME280;44891;50.204;8.132;2023-08-20T07:41:07;98833.88;;;22.62;100.00
59106;BME280;44891;50.204;8.132;2023-08-20T07:45:09;98831.56;;;22.69;100.00
59106;BME280;44891;50.204;8.132;2023-08-20T07:49:11;98824.00;;;22.85;100.00
59106;BME280;44891;50.204;8.132;2023-08-20T07:53:14;98824.13;;;23.02;100.00
59106;BME280;44891;50.204;8.132;2023-08-20T07:57:17;98815.31;;;23.24;98.34
59106;BME280;44891;50.204;8.132;2023-08-20T08:01:19;98815.03;;;23.34;95.87
59106;BME280;44891;50.204;8.132;2023-08-20T08:05:22;98817.84;;;23.29;95.68
59106;BME280;44891;50.204;8.132;2023-08-20T08:09:26;98814.78;;;23.45;95.40
59106;BME280;44891;50.204;8.132;2023-08-20T08:13:30;98806.34;;;23.60;94.23
59106;BME280;44891;50.204;8.132;2023-08-20T08:17:32;98813.41;;;23.78;92.20
59106;BME280;44891;50.204;8.132;2023-08-20T08:21:34;98817.97;;;23.78;91.62
59106;BME280;44891;50.204;8.132;2023-08-20T08:25:36;98781.59;;;23.63;91.44
59106;BME280;44891;50.204;8.132;2023-08-20T08:29:40;98817.53;;;23.93;91.31
59106;BME280;44891;50.204;8.132;2023-08-20T08:33:42;98819.00;;;24.17;90.80
59106;BME280;44891;50.204;8.132;2023-08-20T08:37:44;98814.94;;;24.19;89.44
59106;BME280;44891;50.204;8.132;2023-08-20T08:41:49;98821.75;;;24.42;90.63
59106;BME280;44891;50.204;8.132;2023-08-20T08:45:55;98825.44;;;24.64;88.44
59106;BME280;44891;50.204;8.132;2023-08-20T08:49:58;98833.31;;;24.60;87.22
59106;BME280;44891;50.204;8.132;2023-08-20T08:54:01;98835.06;;;24.82;88.53
59106;BME280;44891;50.204;8.132;2023-08-20T08:58:04;98829.22;;;25.06;87.02
59106;BME280;44891;50.204;8.132;2023-08-20T09:02:10;98833.00;;;25.23;85.60
59106;BME280;44891;50.204;8.132;2023-08-20T09:06:12;98829.34;;;25.36;82.80
59106;BME280;44891;50.204;8.132;2023-08-20T09:10:16;98834.03;;;25.47;81.63
59106;BME280;44891;50.204;8.132;2023-08-20T09:14:21;98830.66;;;25.68;79.34
59106;BME280;44891;50.204;8.132;2023-08-20T09:18:26;98826.97;;;25.81;78.10
59106;BME280;44891;50.204;8.132;2023-08-20T09:22:28;98829.69;;;26.11;76.69
59106;BME280;44891;50.204;8.132;2023-08-20T09:26:30;98824.66;;;26.09;75.05
59106;BME280;44891;50.204;8.132;2023-08-20T09:30:32;98818.75;;;26.16;75.38
59106;BME280;44891;50.204;8.132;2023-08-20T09:34:39;98809.50;;;26.25;74.63
59106;BME280;44891;50.204;8.132;2023-08-20T09:38:41;98818.09;;;26.48;70.42
59106;BME280;44891;50.204;8.132;2023-08-20T09:42:44;98814.13;;;26.67;68.17
59106;BME280;44891;50.204;8.132;2023-08-20T09:46:46;98820.84;;;26.81;70.07
59106;BME280;44891;50.204;8.132;2023-08-20T09:50:51;98830.31;;;27.00;69.21
59106;BME280;44891;50.204;8.132;2023-08-20T09:55:00;98828.03;;;27.10;68.35
59106;BME280;44891;50.204;8.132;2023-08-20T09:59:03;98817.31;;;27.02;68.82
59106;BME280;44891;50.204;8.132;2023-08-20T10:03:06;98819.31;;;27.26;68.96
59106;BME280;44891;50.204;8.132;2023-08-20T10:07:10;98826.06;;;27.32;67.88
59106;BME280;44891;50.204;8.132;2023-08-20T10:11:12;98824.09;;;27.53;67.16
59106;BME280;44891;50.204;8.132;2023-08-20T10:15:14;98826.06;;;27.77;66.09
59106;BME280;44891;50.204;8.132;2023-08-20T10:19:17;98822.00;;;28.08;65.80
59106;BME280;44891;50.204;8.132;2023-08-20T10:23:22;98822.09;;;28.11;63.95
59106;BME280;44891;50.204;8.132;2023-08-20T10:27:25;98820.53;;;28.23;62.62
59106;BME280;44891;50.204;8.132;2023-08-20T10:31:28;98810.84;;;28.46;61.83
59106;BME280;44891;50.204;8.132;2023-08-20T10:35:47;98808.09;;;28.58;58.99
59106;BME280;44891;50.204;8.132;2023-08-20T10:39:55;98806.00;;;28.80;57.32
59106;BME280;44891;50.204;8.132;2023-08-20T10:43:59;98813.03;;;28.96;57.26
59106;BME280;44891;50.204;8.132;2023-08-20T10:48:02;98809.25;;;29.13;57.75
59106;BME280;44891;50.204;8.132;2023-08-20T10:52:05;98810.03;;;29.30;58.53
59106;BME280;44891;50.204;8.132;2023-08-20T10:56:11;98805.59;;;29.37;58.00
59106;BME280;44891;50.204;8.132;2023-08-20T11:00:15;98794.47;;;29.55;58.11
59106;BME280;44891;50.204;8.132;2023-08-20T11:04:19;98801.25;;;29.64;57.78
59106;BME280;44891;50.204;8.132;2023-08-20T11:08:21;98802.31;;;29.75;56.92
59106;BME280;44891;50.204;8.132;2023-08-20T11:12:24;98802.94;;;29.85;57.26
59106;BME280;44891;50.204;8.132;2023-08-20T11:16:26;98801.34;;;29.99;59.47
59106;BME280;44891;50.204;8.132;2023-08-20T11:20:30;98793.91;;;30.12;57.78
59106;BME280;44891;50.204;8.132;2023-08-20T11:24:33;98783.88;;;30.32;58.24
59106;BME280;44891;50.204;8.132;2023-08-20T11:28:36;98795.94;;;30.54;57.46
59106;BME280;44891;50.204;8.132;2023-08-20T11:32:38;98799.22;;;30.63;57.34
59106;BME280;44891;50.204;8.132;2023-08-20T11:36:40;98800.38;;;30.81;57.63
59106;BME280;44891;50.204;8.132;2023-08-20T11:40:42;98800.47;;;30.85;56.49
59106;BME280;44891;50.204;8.132;2023-08-20T11:44:46;98790.72;;;31.03;56.64
59106;BME280;44891;50.204;8.132;2023-08-20T11:49:01;98792.06;;;31.13;54.57
59106;BME280;44891;50.204;8.132;2023-08-20T11:53:04;98800.00;;;31.02;55.96
59106;BME280;44891;50.204;8.132;2023-08-20T11:57:07;98795.91;;;31.31;56.14
59106;BME280;44891;50.204;8.132;2023-08-20T12:01:13;98800.59;;;31.57;54.43
59106;BME280;44891;50.204;8.132;2023-08-20T12:05:18;98794.69;;;31.52;53.48
59106;BME280;44891;50.204;8.132;2023-08-20T12:09:21;98786.16;;;31.76;52.48
59106;BME280;44891;50.204;8.132;2023-08-20T12:13:23;98789.69;;;32.03;51.69
59106;BME280;44891;50.204;8.132;2023-08-20T12:17:28;98779.91;;;31.99;52.82
59106;BME280;44891;50.204;8.132;2023-08-20T12:21:30;98780.06;;;32.09;52.15
59106;BME280;44891;50.204;8.132;2023-08-20T12:25:34;98771.16;;;32.39;51.24
59106;BME280;44891;50.204;8.132;2023-08-20T12:29:36;98768.34;;;32.65;51.20
59106;BME280;44891;50.204;8.132;2023-08-20T12:33:40;98767.88;;;32.90;49.20
59106;BME280;44891;50.204;8.132;2023-08-20T12:37:42;98755.59;;;33.07;48.48
59106;BME280;44891;50.204;8.132;2023-08-20T12:41:44;98751.91;;;33.29;47.77
59106;BME280;44891;50.204;8.132;2023-08-20T12:45:46;98751.38;;;33.13;47.37
59106;BME280;44891;50.204;8.132;2023-08-20T12:49:49;98744.03;;;33.61;47.50
59106;BME280;44891;50.204;8.132;2023-08-20T12:53:51;98748.31;;;33.66;47.45
59106;BME280;44891;50.204;8.132;2023-08-20T12:57:55;98747.09;;;33.60;45.21
59106;BME280;44891;50.204;8.132;2023-08-20T13:01:57;98744.47;;;33.26;46.87
59106;BME280;44891;50.204;8.132;2023-08-20T13:06:01;98740.38;;;33.46;47.23
59106;BME280;44891;50.204;8.132;2023-08-20T13:10:04;98743.91;;;33.06;47.50
59106;BME280;44891;50.204;8.132;2023-08-20T13:14:08;98735.38;;;33.08;47.74
59106;BME280;44891;50.204;8.132;2023-08-20T13:18:11;98747.22;;;32.52;49.23
59106;BME280;44891;50.204;8.132;2023-08-20T13:22:15;98738.81;;;32.64;48.94
59106;BME280;44891;50.204;8.132;2023-08-20T13:26:18;98738.88;;;32.71;49.42
59106;BME280;44891;50.204;8.132;2023-08-20T13:30:21;98732.06;;;32.51;50.39
59106;BME280;44891;50.204;8.132;2023-08-20T13:34:23;98740.00;;;32.03;49.76
59106;BME280;44891;50.204;8.132;2023-08-20T13:38:27;98747.22;;;31.68;51.18
59106;BME280;44891;50.204;8.132;2023-08-20T13:42:29;98744.56;;;31.72;51.12
59106;BME280;44891;50.204;8.132;2023-08-20T13:46:31;98742.34;;;31.78;50.11
59106;BME280;44891;50.204;8.132;2023-08-20T13:50:33;98747.41;;;31.79;50.61
59106;BME280;44891;50.204;8.132;2023-08-20T13:54:37;98732.84;;;32.21;50.09
59106;BME280;44891;50.204;8.132;2023-08-20T13:58:39;98736.03;;;32.60;48.91
59106;BME280;44891;50.204;8.132;2023-08-20T14:02:41;98727.47;;;32.58;49.51
59106;BME280;44891;50.204;8.132;2023-08-20T14:06:43;98728.59;;;32.24;48.30
59106;BME280;44891;50.204;8.132;2023-08-20T14:10:47;98721.53;;;32.83;51.33
59106;BME280;44891;50.204;8.132;2023-08-20T14:14:49;98713.63;;;32.70;48.55
59106;BME280;44891;50.204;8.132;2023-08-20T14:18:51;98717.59;;;32.13;50.60
59106;BME280;44891;50.204;8.132;2023-08-20T14:22:53;98721.09;;;31.83;50.65
59106;BME280;44891;50.204;8.132;2023-08-20T14:26:56;98723.47;;;31.62;50.61
59106;BME280;44891;50.204;8.132;2023-08-20T14:31:01;98697.25;;;32.63;49.70
59106;BME280;44891;50.204;8.132;2023-08-20T14:35:04;98708.28;;;34.57;45.72
59106;BME280;44891;50.204;8.132;2023-08-20T14:39:07;98702.06;;;35.95;42.17
59106;BME280;44891;50.204;8.132;2023-08-20T14:43:10;98699.78;;;36.67;41.27
59106;BME280;44891;50.204;8.132;2023-08-20T14:47:13;98688.50;;;37.10;40.46
59106;BME280;44891;50.204;8.132;2023-08-20T14:51:15;98689.09;;;37.73;40.30
59106;BME280;44891;50.204;8.132;2023-08-20T14:55:17;98691.25;;;37.55;39.81
59106;BME280;44891;50.204;8.132;2023-08-20T14:59:21;98682.00;;;37.76;39.05
59106;BME280;44891;50.204;8.132;2023-08-20T15:03:23;98683.09;;;38.20;39.29
59106;BME280;44891;50.204;8.132;2023-08-20T15:07:25;98681.69;;;38.39;38.04
59106;BME280;44891;50.204;8.132;2023-08-20T15:11:27;98678.78;;;38.49;38.42
59106;BME280;44891;50.204;8.132;2023-08-20T15:15:31;98674.31;;;38.01;38.37
59106;BME280;44891;50.204;8.132;2023-08-20T15:19:33;98674.97;;;37.78;38.93
59106;BME280;44891;50.204;8.132;2023-08-20T15:23:35;98680.63;;;37.61;38.50
59106;BME280;44891;50.204;8.132;2023-08-20T15:27:38;98671.00;;;38.14;38.26
59106;BME280;44891;50.204;8.132;2023-08-20T15:31:41;98669.69;;;37.57;39.70
59106;BME280;44891;50.204;8.132;2023-08-20T15:35:44;98664.00;;;37.78;39.17
59106;BME280;44891;50.204;8.132;2023-08-20T15:39:46;98662.28;;;37.92;38.54
59106;BME280;44891;50.204;8.132;2023-08-20T15:43:48;98667.38;;;36.59;40.42
59106;BME280;44891;50.204;8.132;2023-08-20T15:47:52;98671.53;;;36.78;40.72
59106;BME280;44891;50.204;8.132;2023-08-20T15:51:54;98668.88;;;37.60;38.75
59106;BME280;44891;50.204;8.132;2023-08-20T15:55:56;98668.59;;;37.06;38.74
59106;BME280;44891;50.204;8.132;2023-08-20T15:59:58;98671.22;;;35.81;42.28
59106;BME280;44891;50.204;8.132;2023-08-20T16:04:02;98677.91;;;35.69;42.17
59106;BME280;44891;50.204;8.132;2023-08-20T16:08:05;98675.28;;;33.89;45.33
59106;BME280;44891;50.204;8.132;2023-08-20T16:12:07;98672.16;;;32.84;47.68
59106;BME280;44891;50.204;8.132;2023-08-20T16:16:10;98666.81;;;32.51;50.27
59106;BME280;44891;50.204;8.132;2023-08-20T16:20:14;98676.19;;;31.93;51.35
59106;BME280;44891;50.204;8.132;2023-08-20T16:24:16;98669.09;;;32.15;51.29
59106;BME280;44891;50.204;8.132;2023-08-20T16:28:18;98666.59;;;31.73;51.72
59106;BME280;44891;50.204;8.132;2023-08-20T16:32:20;98670.22;;;31.54;53.73
59106;BME280;44891;50.204;8.132;2023-08-20T16:36:23;98662.84;;;31.05;53.79
59106;BME280;44891;50.204;8.132;2023-08-20T16:40:26;98664.25;;;30.72;54.65
59106;BME280;44891;50.204;8.132;2023-08-20T16:44:28;98670.13;;;30.36;56.17
59106;BME280;44891;50.204;8.132;2023-08-20T16:48:30;98664.78;;;30.20;56.89
59106;BME280;44891;50.204;8.132;2023-08-20T16:52:33;98672.38;;;30.53;57.05
59106;BME280;44891;50.204;8.132;2023-08-20T16:56:36;98676.94;;;30.49;56.77
59106;BME280;44891;50.204;8.132;2023-08-20T17:00:38;98664.38;;;30.60;56.56
59106;BME280;44891;50.204;8.132;2023-08-20T17:04:41;98671.44;;;30.65;57.14
59106;BME280;44891;50.204;8.132;2023-08-20T17:08:45;98667.41;;;30.36;57.10
59106;BME280;44891;50.204;8.132;2023-08-20T17:12:47;98663.50;;;30.33;58.70
59106;BME280;44891;50.204;8.132;2023-08-20T17:16:49;98659.56;;;30.30;58.18
59106;BME280;44891;50.204;8.132;2023-08-20T17:20:51;98666.72;;;30.19;58.20
59106;BME280;44891;50.204;8.132;2023-08-20T17:24:55;98657.03;;;30.02;58.02
59106;BME280;44891;50.204;8.132;2023-08-20T17:28:57;98657.53;;;29.89;58.76
59106;BME280;44891;50.204;8.132;2023-08-20T17:32:59;98658.59;;;29.65;59.80
59106;BME280;44891;50.204;8.132;2023-08-20T17:37:01;98660.69;;;29.56;62.00
59106;BME280;44891;50.204;8.132;2023-08-20T17:41:06;98657.22;;;29.39;63.99
59106;BME280;44891;50.204;8.132;2023-08-20T17:45:08;98664.06;;;29.02;67.37
59106;BME280;44891;50.204;8.132;2023-08-20T17:49:11;98669.94;;;28.76;68.07
59106;BME280;44891;50.204;8.132;2023-08-20T17:53:13;98673.00;;;28.74;69.48
59106;BME280;44891;50.204;8.132;2023-08-20T17:57:16;98679.34;;;28.38;70.43
59106;BME280;44891;50.204;8.132;2023-08-20T18:01:18;98678.03;;;28.32;72.05
59106;BME280;44891;50.204;8.132;2023-08-20T18:05:20;98675.13;;;28.12;72.50
59106;BME280;44891;50.204;8.132;2023-08-20T18:09:22;98680.09;;;28.10;73.27
59106;BME280;44891;50.204;8.132;2023-08-20T18:13:26;98677.84;;;27.72;74.86
59106;BME280;44891;50.204;8.132;2023-08-20T18:17:28;98684.13;;;27.64;74.42
59106;BME280;44891;50.204;8.132;2023-08-20T18:21:30;98695.38;;;27.42;74.27
59106;BME280;44891;50.204;8.132;2023-08-20T18:25:33;98693.59;;;27.21;75.03
59106;BME280;44891;50.204;8.132;2023-08-20T18:29:36;98704.94;;;27.15;76.11
59106;BME280;44891;50.204;8.132;2023-08-20T18:33:38;98704.69;;;27.07;76.97
59106;BME280;44891;50.204;8.132;2023-08-20T18:37:40;98712.00;;;26.86;76.83
59106;BME280;44891;50.204;8.132;2023-08-20T18:41:42;98720.88;;;26.53;78.77
59106;BME280;44891;50.204;8.132;2023-08-20T18:45:46;98722.34;;;26.30;79.65
59106;BME280;44891;50.204;8.132;2023-08-20T18:49:49;98727.66;;;26.18;80.64
59106;BME280;44891;50.204;8.132;2023-08-20T18:53:51;98728.97;;;25.91;81.13
59106;BME280;44891;50.204;8.132;2023-08-20T18:57:53;98744.72;;;25.71;81.15
59106;BME280;44891;50.204;8.132;2023-08-20T19:01:57;98738.88;;;25.69;80.63
59106;BME280;44891;50.204;8.132;2023-08-20T19:05:59;98753.28;;;25.27;81.81
59106;BME280;44891;50.204;8.132;2023-08-20T19:10:01;98757.91;;;25.00;83.24
59106;BME280;44891;50.204;8.132;2023-08-20T19:14:03;98757.16;;;24.91;84.09
59106;BME280;44891;50.204;8.132;2023-08-20T19:18:07;98765.06;;;25.05;84.27
59106;BME280;44891;50.204;8.132;2023-08-20T19:22:09;98774.50;;;25.19;83.50
59106;BME280;44891;50.204;8.132;2023-08-20T19:26:11;98773.59;;;24.89;85.20
59106;BME280;44891;50.204;8.132;2023-08-20T19:30:13;98776.28;;;24.81;86.31
59106;BME280;44891;50.204;8.132;2023-08-20T19:34:17;98773.75;;;24.67;86.14
59106;BME280;44891;50.204;8.132;2023-08-20T19:38:19;98778.19;;;24.37;87.25
59106;BME280;44891;50.204;8.132;2023-08-20T19:42:21;98791.63;;;24.46;87.65
59106;BME280;44891;50.204;8.132;2023-08-20T19:46:23;98791.47;;;24.59;86.39
59106;BME280;44891;50.204;8.132;2023-08-20T19:50:27;98793.50;;;24.62;85.96
59106;BME280;44891;50.204;8.132;2023-08-20T19:54:29;98788.94;;;24.63;84.89
59106;BME280;44891;50.204;8.132;2023-08-20T19:58:32;98802.97;;;24.42;86.44
59106;BME280;44891;50.204;8.132;2023-08-20T20:02:34;98807.25;;;24.52;86.01
59106;BME280;44891;50.204;8.132;2023-08-20T20:06:38;98803.63;;;24.48;85.42
59106;BME280;44891;50.204;8.132;2023-08-20T20:10:40;98805.09;;;24.06;87.44
59106;BME280;44891;50.204;8.132;2023-08-20T20:14:42;98818.97;;;23.59;90.40
59106;BME280;44891;50.204;8.132;2023-08-20T20:18:44;98817.97;;;23.55;91.29
59106;BME280;44891;50.204;8.132;2023-08-20T20:22:47;98815.53;;;23.68;90.11
59106;BME280;44891;50.204;8.132;2023-08-20T20:26:50;98820.00;;;23.81;88.65
59106;BME280;44891;50.204;8.132;2023-08-20T20:30:52;98827.06;;;23.68;88.88
59106;BME280;44891;50.204;8.132;2023-08-20T20:34:55;98831.94;;;23.44;90.20
59106;BME280;44891;50.204;8.132;2023-08-20T20:38:59;98823.88;;;22.90;94.35
59106;BME280;44891;50.204;8.132;2023-08-20T20:43:01;98831.63;;;23.14;92.83
59106;BME280;44891;50.204;8.132;2023-08-20T20:47:03;98831.00;;;23.17;92.23
59106;BME280;44891;50.204;8.132;2023-08-20T20:51:05;98833.16;;;23.06;92.36
59106;BME280;44891;50.204;8.132;2023-08-20T20:55:09;98833.13;;;22.98;93.17
59106;BME280;44891;50.204;8.132;2023-08-20T20:59:11;98839.13;;;23.26;90.63
59106;BME280;44891;50.204;8.132;2023-08-20T21:03:13;98832.66;;;23.27;90.06
59106;BME280;44891;50.204;8.132;2023-08-20T21:07:15;98827.34;;;22.91;91.85
59106;BME280;44891;50.204;8.132;2023-08-20T21:11:18;98830.56;;;22.79;92.61
59106;BME280;44891;50.204;8.132;2023-08-20T21:15:21;98832.94;;;22.80;92.14
59106;BME280;44891;50.204;8.132;2023-08-20T21:19:23;98840.22;;;22.66;93.06
59106;BME280;44891;50.204;8.132;2023-08-20T21:23:25;98835.78;;;22.62;93.38